Time;durP1;ratioP1;P1;durP2;ratioP2;P2;SDS_P1;SDS_P2;PMS_P1;PMS_P2;Temp;Humidity;BMP_temperature;BMP_pressure;BME280_temperature;BME280_humidity;BME280_pressure;Samples;Min_cycle;Max_cycle;Signal;HPM_P1;HPM_P2
2022/10/06 00:01:42;;;;;;;7.50;1.75;;;13.70;99.90;;;;;;5066500;28;20044;-59
2022/10/06 00:04:08;;;;;;;7.25;1.73;;;13.70;99.90;;;;;;5072396;28;20043;-59
2022/10/06 00:06:34;;;;;;;8.10;1.60;;;13.60;99.90;;;;;;5075773;28;20822;-58
2022/10/06 00:09:00;;;;;;;9.25;1.45;;;13.50;99.90;;;;;;5066966;28;20097;-58
2022/10/06 00:11:27;;;;;;;6.40;1.58;;;13.50;99.90;;;;;;5058412;28;20497;-59
2022/10/06 00:13:53;;;;;;;6.60;1.35;;;13.50;99.90;;;;;;5049940;28;20052;-58
2022/10/06 00:16:23;;;;;;;3.53;1.60;;;13.50;99.90;;;;;;5077703;28;20047;-59
2022/10/06 00:18:49;;;;;;;9.10;1.83;;;13.50;99.90;;;;;;5076280;28;20054;-58
2022/10/06 00:21:15;;;;;;;5.82;1.92;;;13.50;99.90;;;;;;5073870;28;20491;-58
2022/10/06 00:23:42;;;;;;;6.97;1.75;;;13.40;99.90;;;;;;5043991;28;20055;-59
2022/10/06 00:26:15;;;;;;;3.85;1.10;;;13.30;99.90;;;;;;5078166;28;20048;-58
2022/10/06 00:28:48;;;;;;;4.00;1.00;;;13.20;99.90;;;;;;5093107;28;20051;-58
2022/10/06 00:31:15;;;;;;;5.03;1.20;;;13.20;99.90;;;;;;5061621;28;20039;-58
2022/10/06 00:33:42;;;;;;;7.05;1.23;;;13.20;99.90;;;;;;5080168;28;20086;-59
2022/10/06 00:36:08;;;;;;;6.63;1.35;;;13.10;99.90;;;;;;5082557;28;20048;-58
2022/10/06 00:38:34;;;;;;;4.28;1.30;;;13.00;99.90;;;;;;5079146;28;20046;-59
2022/10/06 00:41:01;;;;;;;7.07;1.30;;;13.00;99.90;;;;;;5073236;28;20135;-58
2022/10/06 00:43:45;;;;;;;6.88;1.67;;;13.10;99.90;;;;;;5052902;28;20047;-57
2022/10/06 00:46:47;;;;;;;5.55;1.30;;;13.10;99.90;;;;;;5058254;28;20066;-59
2022/10/06 00:49:16;;;;;;;6.47;1.00;;;13.00;99.90;;;;;;5076948;28;20119;-59
2022/10/06 00:51:48;;;;;;;7.53;1.55;;;13.00;99.90;;;;;;5080561;28;20060;-58
2022/10/06 00:54:16;;;;;;;5.63;1.10;;;12.90;99.90;;;;;;5081728;28;20051;-58
2022/10/06 00:56:42;;;;;;;6.00;1.25;;;12.90;99.90;;;;;;5082071;28;20402;-59
2022/10/06 00:59:13;;;;;;;5.28;1.13;;;12.90;99.90;;;;;;5063949;28;20051;-58
2022/10/06 01:02:04;;;;;;;9.30;1.63;;;12.90;99.90;;;;;;5062803;28;20052;-58
2022/10/06 01:04:36;;;;;;;6.45;1.20;;;12.80;99.90;;;;;;5080728;28;20128;-48
2022/10/06 01:07:03;;;;;;;6.95;1.42;;;12.80;99.90;;;;;;5094885;28;20060;-47
2022/10/06 01:09:30;;;;;;;6.65;1.60;;;12.80;99.90;;;;;;5079372;28;20052;-44
2022/10/06 01:11:59;;;;;;;8.32;1.60;;;12.80;99.90;;;;;;5077349;28;20048;-44
2022/10/06 01:14:26;;;;;;;7.25;1.48;;;12.80;99.90;;;;;;5074519;28;20050;-58
2022/10/06 01:17:06;;;;;;;8.88;1.50;;;12.80;99.90;;;;;;5079372;28;20105;-58
2022/10/06 01:19:56;;;;;;;8.68;1.50;;;12.70;99.90;;;;;;5079540;28;20083;-59
2022/10/06 01:22:27;;;;;;;11.32;2.15;;;12.70;99.90;;;;;;5077933;28;20051;-58
2022/10/06 01:24:54;;;;;;;8.80;1.83;;;12.70;99.90;;;;;;5064451;28;20562;-59
2022/10/06 01:27:22;;;;;;;10.52;1.60;;;12.70;99.90;;;;;;5078193;28;20767;-58
2022/10/06 01:29:54;;;;;;;6.07;1.45;;;12.70;99.90;;;;;;5079165;28;20059;-58
2022/10/06 01:32:21;;;;;;;;;;;12.60;99.90;;;;;;5055569;28;20055;-58
2022/10/06 01:34:47;;;;;;;10.10;1.95;;;12.60;99.90;;;;;;5081270;28;20367;-58
2022/10/06 01:37:14;;;;;;;9.27;2.05;;;12.50;99.90;;;;;;5061801;28;20167;-43
2022/10/06 01:39:42;;;;;;;8.90;2.13;;;12.50;99.90;;;;;;5075334;28;20047;-58
2022/10/06 01:42:09;;;;;;;9.45;1.83;;;12.50;99.90;;;;;;5042983;28;20052;-58
2022/10/06 01:44:36;;;;;;;9.57;1.88;;;12.50;99.90;;;;;;5079197;28;20220;-59
2022/10/06 01:47:06;;;;;;;8.13;1.80;;;12.40;99.90;;;;;;5079866;28;20036;-43
2022/10/06 01:49:33;;;;;;;13.60;2.65;;;12.30;99.90;;;;;;5061072;28;20048;-44
2022/10/06 01:52:00;;;;;;;11.73;2.13;;;12.30;99.90;;;;;;5054339;28;20094;-48
2022/10/06 01:54:26;;;;;;;5.82;1.40;;;12.20;99.90;;;;;;5052484;28;20056;-42
2022/10/06 01:56:54;;;;;;;6.05;1.52;;;12.20;99.90;;;;;;5059163;28;20112;-58
2022/10/06 01:59:20;;;;;;;9.82;1.73;;;12.20;99.90;;;;;;5078438;28;20079;-57
2022/10/06 02:01:46;;;;;;;7.07;1.45;;;12.10;99.90;;;;;;5041701;28;20063;-58
2022/10/06 02:04:13;;;;;;;9.65;1.77;;;12.10;99.90;;;;;;5051176;28;20127;-43
2022/10/06 02:06:39;;;;;;;8.82;1.80;;;12.10;99.90;;;;;;5057999;28;20072;-59
2022/10/06 02:09:05;;;;;;;9.95;1.77;;;12.10;99.90;;;;;;5074217;28;20051;-58
2022/10/06 02:11:32;;;;;;;9.60;1.98;;;12.10;99.90;;;;;;5054545;28;20245;-44
2022/10/06 02:14:00;;;;;;;10.98;1.75;;;12.10;99.90;;;;;;5077553;28;20097;-43
2022/10/06 02:16:27;;;;;;;7.68;1.38;;;12.10;99.90;;;;;;5060897;28;20087;-58
2022/10/06 02:18:54;;;;;;;10.02;2.10;;;12.20;99.90;;;;;;5077907;28;20051;-58
2022/10/06 02:21:22;;;;;;;10.40;1.65;;;12.10;99.90;;;;;;5059908;28;20109;-59
2022/10/06 02:23:48;;;;;;;11.32;1.63;;;12.10;99.90;;;;;;5055733;28;20059;-58
2022/10/06 02:26:18;;;;;;;11.05;2.05;;;12.10;99.90;;;;;;5073146;28;20086;-58
2022/10/06 02:28:46;;;;;;;7.82;1.88;;;12.10;99.90;;;;;;5090332;28;20052;-58
2022/10/06 02:31:17;;;;;;;6.95;2.08;;;12.00;99.90;;;;;;5057650;28;20044;-58
2022/10/06 02:33:44;;;;;;;11.82;2.63;;;11.90;99.90;;;;;;5030547;28;20059;-58
2022/10/06 02:36:12;;;;;;;12.00;1.80;;;11.90;99.90;;;;;;5074630;28;20048;-58
2022/10/06 02:38:40;;;;;;;9.80;1.92;;;11.90;99.90;;;;;;5055346;28;20535;-58
2022/10/06 02:41:09;;;;;;;8.80;2.47;;;11.80;99.90;;;;;;5074721;28;20052;-58
2022/10/06 02:43:35;;;;;;;8.93;1.83;;;11.80;99.90;;;;;;5070934;28;20576;-58
2022/10/06 02:46:05;;;;;;;8.32;1.60;;;11.80;99.90;;;;;;5077482;28;20231;-58
2022/10/06 02:48:33;;;;;;;8.10;1.88;;;11.80;99.90;;;;;;5080040;28;20052;-58
2022/10/06 02:51:02;;;;;;;8.02;2.05;;;11.80;99.90;;;;;;5078724;28;20043;-58
2022/10/06 02:53:28;;;;;;;10.35;2.38;;;11.70;99.90;;;;;;5059442;28;20040;-58
2022/10/06 02:55:59;;;;;;;8.52;1.80;;;11.70;99.90;;;;;;5050881;28;20559;-57
2022/10/06 02:58:28;;;;;;;9.07;1.80;;;11.70;99.90;;;;;;5081188;28;20248;-56
2022/10/06 03:01:06;;;;;;;9.55;1.70;;;11.70;99.90;;;;;;5062442;28;20765;-58
2022/10/06 03:03:34;;;;;;;12.48;1.90;;;11.70;99.90;;;;;;5090651;28;20065;-58
2022/10/06 03:06:20;;;;;;;12.15;2.88;;;11.70;99.90;;;;;;5078166;28;20169;-58
2022/10/06 03:08:58;;;;;;;9.05;2.65;;;11.60;99.90;;;;;;5077190;28;20040;-57
2022/10/06 03:11:28;;;;;;;10.48;1.95;;;11.70;99.90;;;;;;5039012;28;20685;-56
2022/10/06 03:13:54;;;;;;;10.57;1.83;;;11.60;99.90;;;;;;5075577;28;20059;-57
2022/10/06 03:16:23;;;;;;;7.63;1.80;;;11.60;99.90;;;;;;5077930;28;20060;-58
2022/10/06 03:18:51;;;;;;;13.25;2.40;;;11.60;99.90;;;;;;5061688;28;20534;-57
2022/10/06 03:21:18;;;;;;;13.18;2.88;;;11.60;99.90;;;;;;5070323;28;20049;-58
2022/10/06 03:23:50;;;;;;;12.32;2.38;;;11.60;99.90;;;;;;5052822;28;20044;-58
2022/10/06 03:26:19;;;;;;;14.40;2.58;;;11.60;99.90;;;;;;5034098;28;20476;-57
2022/10/06 03:28:46;;;;;;;8.93;1.75;;;11.60;99.90;;;;;;5058955;28;20046;-58
2022/10/06 03:31:13;;;;;;;11.35;2.45;;;11.60;99.90;;;;;;5074143;28;20051;-58
2022/10/06 03:33:39;;;;;;;10.20;2.40;;;11.50;99.90;;;;;;5040634;28;20058;-58
2022/10/06 03:36:17;;;;;;;9.20;1.98;;;11.50;99.90;;;;;;5079074;28;20048;-57
2022/10/06 03:38:43;;;;;;;13.80;2.33;;;11.40;99.90;;;;;;5076514;28;20048;-47
2022/10/06 03:41:21;;;;;;;11.63;2.35;;;11.40;99.90;;;;;;5056356;28;20074;-43
2022/10/06 03:43:49;;;;;;;14.10;2.40;;;11.40;99.90;;;;;;5074208;28;20051;-48
2022/10/06 03:46:18;;;;;;;12.57;2.05;;;11.40;99.90;;;;;;5077889;28;20764;-46
2022/10/06 03:48:46;;;;;;;10.15;2.72;;;11.40;99.90;;;;;;5039862;28;20082;-44
2022/10/06 03:51:18;;;;;;;13.05;2.75;;;11.40;99.90;;;;;;5069565;28;20039;-44
2022/10/06 03:53:46;;;;;;;9.70;2.38;;;11.30;99.90;;;;;;5061474;28;20051;-43
2022/10/06 03:56:16;;;;;;;8.23;2.40;;;11.30;99.90;;;;;;5039256;28;20050;-57
2022/10/06 03:58:44;;;;;;;11.80;2.28;;;11.30;99.90;;;;;;5075124;28;21735;-58
2022/10/06 04:01:23;;;;;;;10.70;2.08;;;11.20;99.90;;;;;;5057601;28;20049;-56
2022/10/06 04:03:50;;;;;;;10.52;2.30;;;11.10;99.90;;;;;;5050126;28;20048;-56
2022/10/06 04:06:18;;;;;;;11.55;2.20;;;11.10;99.90;;;;;;5082410;28;20072;-56
2022/10/06 04:08:49;;;;;;;9.88;2.28;;;11.00;99.90;;;;;;5081106;28;20058;-56
2022/10/06 04:11:19;;;;;;;10.80;2.08;;;11.00;99.90;;;;;;5054816;28;20303;-56
2022/10/06 04:13:47;;;;;;;12.07;1.60;;;11.00;99.90;;;;;;5044527;28;20048;-56
2022/10/06 04:16:21;;;;;;;8.95;1.75;;;10.90;99.90;;;;;;5072683;28;20337;-57
2022/10/06 04:18:50;;;;;;;10.98;2.20;;;10.90;99.90;;;;;;5064447;28;20059;-57
2022/10/06 04:21:16;;;;;;;10.82;2.03;;;10.80;99.90;;;;;;5079742;28;20055;-56
2022/10/06 04:23:43;;;;;;;11.15;1.85;;;10.80;99.90;;;;;;5060706;28;20097;-57
2022/10/06 04:26:13;;;;;;;15.40;2.85;;;10.80;99.90;;;;;;5082214;28;20051;-57
2022/10/06 04:28:42;;;;;;;10.02;1.80;;;10.70;99.90;;;;;;5062376;28;20548;-57
2022/10/06 04:31:18;;;;;;;12.70;2.10;;;10.70;99.90;;;;;;5045757;28;20067;-56
2022/10/06 04:33:45;;;;;;;10.60;2.00;;;10.70;99.90;;;;;;5077628;28;20125;-56
2022/10/06 04:36:22;;;;;;;9.82;2.20;;;10.70;99.90;;;;;;5061851;28;20040;-43
2022/10/06 04:38:59;;;;;;;7.90;1.40;;;10.80;99.90;;;;;;5062596;28;20044;-56
2022/10/06 04:41:32;;;;;;;12.75;2.03;;;10.70;99.90;;;;;;5071844;28;20541;-56
2022/10/06 04:43:59;;;;;;;11.98;1.90;;;10.70;99.90;;;;;;5079280;28;20127;-57
2022/10/06 04:46:26;;;;;;;11.85;2.47;;;10.70;99.90;;;;;;5079817;28;20549;-58
2022/10/06 04:48:54;;;;;;;14.40;2.20;;;10.60;99.90;;;;;;5074534;28;20156;-56
2022/10/06 04:51:25;;;;;;;11.13;2.17;;;10.60;99.90;;;;;;5081597;28;20574;-56
2022/10/06 04:53:52;;;;;;;14.93;2.20;;;10.60;99.90;;;;;;5059983;28;20043;-57
2022/10/06 04:56:24;;;;;;;9.02;1.90;;;10.60;99.90;;;;;;5049139;28;20078;-57
2022/10/06 04:58:53;;;;;;;11.02;2.35;;;10.50;99.90;;;;;;5079623;28;20036;-56
2022/10/06 05:01:24;;;;;;;10.95;1.90;;;10.50;99.90;;;;;;5078846;28;20097;-56
2022/10/06 05:03:54;;;;;;;9.93;2.40;;;10.50;99.90;;;;;;5057535;28;20123;-56
2022/10/06 05:06:26;;;;;;;12.10;1.80;;;10.50;99.90;;;;;;5059322;28;20097;-56
2022/10/06 05:08:56;;;;;;;11.85;2.25;;;10.40;99.90;;;;;;5062268;28;20063;-56
2022/10/06 05:11:23;;;;;;;11.73;2.63;;;10.40;99.90;;;;;;5080708;28;20127;-57
2022/10/06 05:13:54;;;;;;;13.32;2.75;;;10.30;99.90;;;;;;5080530;28;20048;-57
2022/10/06 05:16:22;;;;;;;19.17;3.00;;;10.30;99.90;;;;;;5076477;28;20099;-56
2022/10/06 05:18:49;;;;;;;12.38;3.00;;;10.30;99.90;;;;;;5060524;28;20815;-57
2022/10/06 05:21:21;;;;;;;17.42;3.30;;;10.30;99.90;;;;;;5064037;28;20051;-56
2022/10/06 05:23:48;;;;;;;15.20;2.65;;;10.20;99.90;;;;;;5038941;28;20503;-56
2022/10/06 05:26:16;;;;;;;12.00;1.95;;;10.20;99.90;;;;;;5062873;28;20069;-56
2022/10/06 05:28:43;;;;;;;16.42;2.28;;;10.20;99.90;;;;;;5078135;28;20051;-57
2022/10/06 05:31:16;;;;;;;9.73;2.63;;;10.10;99.90;;;;;;5059856;28;20423;-44
2022/10/06 05:33:43;;;;;;;10.30;2.08;;;10.20;99.90;;;;;;5076158;28;20051;-44
2022/10/06 05:36:12;;;;;;;13.70;2.75;;;10.20;99.90;;;;;;5052410;28;20044;-44
2022/10/06 05:38:39;;;;;;;11.68;2.38;;;10.20;99.90;;;;;;5072438;28;20052;-53
2022/10/06 05:41:10;;;;;;;12.45;2.25;;;10.20;99.90;;;;;;5071652;28;20182;-59
2022/10/06 05:43:37;;;;;;;10.45;2.03;;;10.20;99.90;;;;;;5073781;28;20056;-56
2022/10/06 05:46:06;;;;;;;9.05;1.95;;;10.30;99.90;;;;;;5075568;28;20052;-55
2022/10/06 05:48:32;;;;;;;17.02;3.10;;;10.30;99.90;;;;;;5061335;28;20093;-55
2022/10/06 05:51:08;;;;;;;10.20;2.30;;;10.30;99.90;;;;;;5063532;28;20131;-55
2022/10/06 05:53:37;;;;;;;13.40;2.25;;;10.30;99.90;;;;;;5079894;28;20059;-55
2022/10/06 05:56:15;;;;;;;13.02;2.45;;;10.30;99.90;;;;;;5073119;28;20056;-56
2022/10/06 05:58:44;;;;;;;13.00;2.08;;;10.30;99.90;;;;;;5042715;28;20082;-55
2022/10/06 06:01:21;;;;;;;12.50;2.05;;;10.30;99.90;;;;;;5063620;28;20044;-55
2022/10/06 06:03:58;;;;;;;13.40;2.13;;;10.30;99.90;;;;;;5077335;28;20048;-53
2022/10/06 06:06:27;;;;;;;14.38;2.65;;;10.30;99.90;;;;;;5069259;28;20043;-56
2022/10/06 06:08:57;;;;;;;;;;;10.30;99.90;;;;;;5076215;28;20051;-55
2022/10/06 06:11:26;;;;;;;15.43;2.95;;;10.30;99.90;;;;;;5079958;28;20663;-42
2022/10/06 06:13:59;;;;;;;13.20;2.97;;;10.30;99.90;;;;;;5076410;28;20917;-57
2022/10/06 06:16:27;;;;;;;12.68;2.45;;;10.30;99.90;;;;;;5071598;28;20060;-47
2022/10/06 06:18:53;;;;;;;13.43;2.40;;;10.30;99.90;;;;;;5067199;28;20087;-46
2022/10/06 06:21:20;;;;;;;12.38;2.65;;;10.40;99.90;;;;;;5067744;28;20040;-56
2022/10/06 06:23:48;;;;;;;10.90;2.75;;;10.40;99.90;;;;;;5056147;28;20044;-55
2022/10/06 06:26:19;;;;;;;12.23;2.40;;;10.40;99.90;;;;;;5054842;28;20036;-50
2022/10/06 06:28:49;;;;;;;12.65;2.50;;;10.50;99.90;;;;;;5042973;28;20047;-57
2022/10/06 06:31:22;;;;;;;11.73;2.85;;;10.50;99.90;;;;;;5089788;28;20077;-57
2022/10/06 06:33:52;;;;;;;14.07;2.15;;;10.60;99.90;;;;;;5025471;28;20056;-57
2022/10/06 06:36:21;;;;;;;11.75;2.63;;;10.60;99.90;;;;;;5052199;28;20761;-56
2022/10/06 06:38:50;;;;;;;15.73;2.58;;;10.70;99.90;;;;;;5056482;28;20036;-55
2022/10/06 06:41:22;;;;;;;12.70;2.50;;;10.80;99.90;;;;;;5047218;28;20491;-56
2022/10/06 06:43:54;;;;;;;10.35;2.42;;;10.80;99.90;;;;;;5068948;28;20048;-55
2022/10/06 06:46:32;;;;;;;8.77;2.38;;;10.90;99.90;;;;;;5052010;28;20050;-56
2022/10/06 06:49:03;;;;;;;9.75;2.67;;;10.90;99.90;;;;;;5070864;28;20518;-57
2022/10/06 06:51:36;;;;;;;10.10;2.38;;;11.00;99.90;;;;;;5066008;28;20583;-56
2022/10/06 06:54:03;;;;;;;16.10;2.25;;;11.00;99.90;;;;;;5055553;28;20048;-57
2022/10/06 06:56:33;;;;;;;12.60;2.83;;;11.10;99.90;;;;;;5046759;28;20044;-59
2022/10/06 06:59:09;;;;;;;11.52;2.95;;;11.20;99.90;;;;;;5070319;28;20082;-57
2022/10/06 07:01:38;;;;;;;12.98;1.98;;;11.20;99.90;;;;;;5052568;28;20048;-45
2022/10/06 07:04:05;;;;;;;10.80;2.33;;;11.30;99.90;;;;;;5074022;28;20093;-57
2022/10/06 07:06:36;;;;;;;15.23;3.30;;;11.40;99.90;;;;;;5068564;28;20101;-42
2022/10/06 07:09:03;;;;;;;12.57;2.42;;;11.60;99.90;;;;;;5073674;28;20859;-45
2022/10/06 07:11:34;;;;;;;11.63;2.33;;;11.90;99.90;;;;;;5039939;28;20048;-55
2022/10/06 07:14:07;;;;;;;10.65;2.28;;;12.10;99.90;;;;;;5069525;28;20091;-55
2022/10/06 07:25:11;;;;;;;13.77;2.53;;;13.00;99.90;;;;;;5072500;28;20044;-56
2022/10/06 07:27:49;;;;;;;9.70;2.40;;;13.20;99.90;;;;;;5070209;28;20044;-57
2022/10/06 07:30:23;;;;;;;11.63;2.22;;;13.40;99.90;;;;;;5035848;28;20086;-57
2022/10/06 07:32:54;;;;;;;11.77;2.55;;;13.70;99.90;;;;;;5068647;28;20043;-56
2022/10/06 07:35:23;;;;;;;12.70;2.67;;;13.90;99.90;;;;;;5054394;28;20048;-57
2022/10/06 07:37:54;;;;;;;8.40;1.55;;;14.10;99.90;;;;;;5072383;28;20910;-57
2022/10/06 07:40:22;;;;;;;9.60;2.42;;;14.30;99.90;;;;;;5048366;28;20055;-46
2022/10/06 07:42:52;;;;;;;16.40;2.70;;;14.60;99.90;;;;;;5039620;28;20151;-47
2022/10/06 07:45:37;;;;;;;9.65;1.98;;;14.80;99.90;;;;;;5069457;28;20052;-42
2022/10/06 07:48:08;;;;;;;9.68;2.72;;;15.20;99.90;;;;;;5051139;28;20082;-44
2022/10/06 07:50:38;;;;;;;11.02;2.25;;;15.40;99.90;;;;;;5072696;28;20048;-46
2022/10/06 07:53:07;;;;;;;15.55;2.60;;;15.60;99.90;;;;;;5065515;28;20052;-55
2022/10/06 07:55:39;;;;;;;9.60;2.65;;;15.90;99.90;;;;;;5068997;28;20073;-53
2022/10/06 07:58:23;;;;;;;11.60;2.65;;;16.30;99.90;;;;;;5068419;28;20055;-55
2022/10/06 08:00:53;;;;;;;10.73;2.08;;;16.60;99.90;;;;;;5070676;28;20056;-55
2022/10/06 08:03:19;;;;;;;8.32;1.75;;;16.80;99.90;;;;;;5071030;28;20044;-43
2022/10/06 08:05:48;;;;;;;10.38;2.42;;;17.20;99.90;;;;;;5073214;28;20048;-45
2022/10/06 08:08:15;;;;;;;7.45;2.13;;;17.20;99.90;;;;;;5064487;28;20040;-47
2022/10/06 08:10:42;;;;;;;11.57;2.40;;;17.70;99.90;;;;;;5051604;28;20043;-55
2022/10/06 08:13:09;;;;;;;11.00;2.10;;;17.70;99.90;;;;;;5070838;28;20062;-56
2022/10/06 08:15:35;;;;;;;10.10;2.80;;;18.00;99.90;;;;;;5053600;28;20131;-56
2022/10/06 08:18:02;;;;;;;9.68;1.90;;;18.20;99.90;;;;;;5066099;28;20059;-57
2022/10/06 08:20:29;;;;;;;9.95;1.92;;;18.50;99.90;;;;;;5041690;28;20122;-55
2022/10/06 08:22:55;;;;;;;11.70;2.88;;;18.70;99.90;;;;;;5070845;28;20051;-56
2022/10/06 08:25:22;;;;;;;7.70;2.10;;;18.60;99.90;;;;;;5054327;28;20048;-56
2022/10/06 08:27:48;;;;;;;8.52;2.75;;;18.80;99.90;;;;;;5067058;28;20043;-56
2022/10/06 08:30:15;;;;;;;10.32;2.20;;;19.20;99.90;;;;;;5071410;28;20047;-55
2022/10/06 08:32:42;;;;;;;8.20;2.47;;;19.30;99.90;;;;;;5065823;28;20048;-56
2022/10/06 08:35:09;;;;;;;12.88;2.05;;;18.40;99.90;;;;;;5068024;28;20047;-56
2022/10/06 08:37:36;;;;;;;7.38;1.83;;;19.00;99.90;;;;;;5063058;28;20487;-57
2022/10/06 08:40:02;;;;;;;12.10;2.28;;;18.90;99.90;;;;;;5049835;28;20706;-57
2022/10/06 08:42:57;;;;;;;12.40;2.00;;;19.00;99.90;;;;;;5072155;28;20096;-56
2022/10/06 08:45:38;;;;;;;9.27;2.47;;;19.00;99.90;;;;;;5070048;28;20097;-47
2022/10/06 08:48:16;;;;;;;10.48;1.88;;;19.50;99.90;;;;;;5072875;28;20135;-47
2022/10/06 08:51:04;;;;;;;8.27;2.28;;;19.40;99.90;;;;;;5069699;28;20066;-46
2022/10/06 08:53:38;;;;;;;11.20;2.40;;;19.60;99.90;;;;;;5089960;28;20095;-46
2022/10/06 08:56:25;;;;;;;10.40;2.05;;;19.60;99.90;;;;;;5074236;28;20048;-61
2022/10/06 08:58:53;;;;;;;16.58;2.47;;;19.50;99.90;;;;;;5070546;28;20452;-58
2022/10/06 09:01:23;;;;;;;12.35;2.78;;;19.80;99.90;;;;;;5072230;28;20037;-46
2022/10/06 09:04:00;;;;;;;11.05;2.20;;;20.40;99.90;;;;;;5069937;28;20050;-47
2022/10/06 09:06:44;;;;;;;6.95;1.88;;;20.00;99.90;;;;;;5051789;28;20040;-48
2022/10/06 09:09:20;;;;;;;12.07;2.33;;;20.00;99.90;;;;;;5053380;28;20040;-45
2022/10/06 09:12:13;;;;;;;9.70;2.08;;;20.00;99.90;;;;;;5054151;28;20143;-47
2022/10/06 09:15:06;;;;;;;7.75;3.08;;;20.70;99.90;;;;;;5073650;28;20457;-47
2022/10/06 09:17:38;;;;;;;10.73;3.97;;;20.50;99.90;;;;;;5069796;28;20052;-47
2022/10/06 09:20:14;;;;;;;8.02;2.17;;;20.40;99.90;;;;;;5067491;28;20391;-47
2022/10/06 09:22:42;;;;;;;8.95;2.15;;;20.70;99.90;;;;;;5068407;28;20538;-46
2022/10/06 09:25:26;;;;;;;10.20;2.55;;;21.30;99.90;;;;;;5060340;28;20048;-59
2022/10/06 09:27:55;;;;;;;11.02;2.05;;;21.40;99.90;;;;;;5055322;28;20056;-58
2022/10/06 09:30:23;;;;;;;9.55;2.03;;;21.30;99.90;;;;;;5070551;28;20082;-59
2022/10/06 09:32:57;;;;;;;9.52;2.50;;;20.30;99.90;;;;;;5071565;28;20096;-47
2022/10/06 09:35:26;;;;;;;9.13;1.98;;;20.40;99.90;;;;;;5070248;28;20060;-47
2022/10/06 09:37:55;;;;;;;8.95;1.95;;;20.50;99.90;;;;;;5072826;28;20048;-59
2022/10/06 09:40:37;;;;;;;8.68;2.17;;;20.60;99.90;;;;;;5053302;28;20131;-60
2022/10/06 09:43:27;;;;;;;9.77;2.45;;;20.70;99.90;;;;;;5074043;28;20068;-57
2022/10/06 09:45:55;;;;;;;8.20;1.75;;;21.10;99.90;;;;;;5076836;28;20228;-58
2022/10/06 09:48:24;;;;;;;9.15;2.15;;;21.00;99.90;;;;;;5069789;28;20047;-58
2022/10/06 09:51:13;;;;;;;10.70;2.53;;;21.00;99.90;;;;;;5070079;28;20044;-58
2022/10/06 09:53:41;;;;;;;11.75;2.30;;;21.20;99.70;;;;;;5056958;28;20054;-58
2022/10/06 09:56:18;;;;;;;11.10;2.72;;;20.40;99.90;;;;;;5068748;28;20534;-58
2022/10/06 09:58:59;;;;;;;9.27;2.30;;;21.10;99.90;;;;;;5049188;28;20763;-55
2022/10/06 10:01:27;;;;;;;7.97;1.70;;;21.70;99.90;;;;;;5065048;28;20035;-44
2022/10/06 10:03:59;;;;;;;6.97;1.80;;;20.80;99.30;;;;;;5071238;28;20043;-49
2022/10/06 10:06:27;;;;;;;7.63;1.88;;;20.80;99.70;;;;;;5055345;28;20052;-47
2022/10/06 10:09:33;;;;;;;9.93;2.10;;;20.80;99.90;;;;;;5069575;28;20118;-46
2022/10/06 10:12:28;;;;;;;9.20;2.80;;;20.90;99.70;;;;;;5073802;28;20035;-46
2022/10/06 10:14:58;;;;;;;9.05;3.03;;;21.90;99.70;;;;;;5075010;28;20044;-47
2022/10/06 10:17:50;;;;;;;11.43;2.00;;;21.40;98.10;;;;;;5051606;28;20052;-45
2022/10/06 10:20:28;;;;;;;9.75;2.15;;;21.90;98.40;;;;;;5054464;28;20089;-50
2022/10/06 10:22:57;;;;;;;8.27;1.60;;;21.30;98.10;;;;;;5077277;28;20101;-45
2022/10/06 10:25:39;;;;;;;9.40;2.47;;;21.50;98.90;;;;;;5051672;28;20716;-47
2022/10/06 10:28:22;;;;;;;8.95;1.98;;;21.60;98.00;;;;;;5072151;28;20045;-46
2022/10/06 10:31:08;;;;;;;8.02;2.58;;;20.60;97.60;;;;;;5070024;28;20052;-45
2022/10/06 10:33:43;;;;;;;6.20;1.70;;;20.40;98.50;;;;;;5072257;28;20052;-46
2022/10/06 10:36:13;;;;;;;7.25;2.03;;;21.30;98.90;;;;;;5063563;28;20094;-47
2022/10/06 10:38:41;;;;;;;9.23;1.90;;;21.50;97.90;;;;;;5056749;28;20047;-48
2022/10/06 10:41:15;;;;;;;8.38;2.97;;;20.80;96.30;;;;;;5055884;28;20463;-49
2022/10/06 10:43:51;;;;;;;8.23;1.90;;;20.40;96.00;;;;;;5058735;28;20146;-46
2022/10/06 10:46:27;;;;;;;7.15;3.08;;;20.20;96.30;;;;;;5059328;28;20131;-48
2022/10/06 10:49:06;;;;;;;9.00;2.70;;;21.10;96.10;;;;;;5071224;28;20050;-46
2022/10/06 10:51:55;;;;;;;8.65;3.08;;;21.10;95.90;;;;;;5074502;28;20040;-49
2022/10/06 10:54:36;;;;;;;9.00;2.60;;;21.20;95.90;;;;;;5063319;28;20105;-45
2022/10/06 10:57:03;;;;;;;5.82;1.52;;;20.90;93.50;;;;;;5069259;28;20046;-47
2022/10/06 10:59:51;;;;;;;7.55;2.22;;;21.30;94.60;;;;;;5071300;28;20051;-46
2022/10/06 11:02:19;;;;;;;10.43;1.90;;;21.80;93.50;;;;;;5067378;28;20475;-46
2022/10/06 11:04:51;;;;;;;7.55;2.03;;;21.60;94.10;;;;;;5052672;28;20056;-46
2022/10/06 11:07:41;;;;;;;8.40;2.13;;;21.50;94.60;;;;;;5070578;28;20066;-47
2022/10/06 11:10:20;;;;;;;5.85;1.52;;;22.30;94.30;;;;;;5067009;28;20060;-46
2022/10/06 11:13:22;;;;;;;6.70;1.75;;;23.00;93.70;;;;;;5074438;28;20044;-47
2022/10/06 11:16:27;;;;;;;10.15;2.65;;;22.30;90.70;;;;;;5068991;28;20062;-44
2022/10/06 11:19:00;;;;;;;11.23;1.60;;;23.00;90.00;;;;;;5066536;28;21364;-44
2022/10/06 11:21:35;;;;;;;5.78;1.58;;;23.10;86.50;;;;;;5068300;28;20090;-47
2022/10/06 11:24:34;;;;;;;8.07;1.50;;;22.90;86.40;;;;;;5067201;28;20131;-57
2022/10/06 11:27:26;;;;;;;7.68;2.17;;;23.00;83.50;;;;;;5051855;28;20139;-54
2022/10/06 11:30:11;;;;;;;6.50;1.60;;;22.90;81.40;;;;;;5066244;28;20154;-56
2022/10/06 11:32:50;;;;;;;5.80;1.48;;;22.90;82.20;;;;;;5067577;28;20048;-56
2022/10/06 11:35:25;;;;;;;6.30;1.73;;;23.60;82.50;;;;;;5068320;28;20040;-56
2022/10/06 11:38:00;;;;;;;6.68;1.52;;;23.90;80.20;;;;;;5068262;28;20040;-56
2022/10/06 11:40:38;;;;;;;8.75;2.60;;;24.50;78.70;;;;;;5065618;28;20052;-60
2022/10/06 11:43:19;;;;;;;9.55;1.95;;;24.00;74.50;;;;;;5068374;28;20101;-57
2022/10/06 11:46:11;;;;;;;4.70;1.40;;;24.20;73.60;;;;;;5038032;28;20470;-56
2022/10/06 11:48:37;;;;;;;7.18;1.67;;;23.70;72.30;;;;;;5086091;28;20059;-57
2022/10/06 11:51:28;;;;;;;7.03;1.80;;;23.80;72.40;;;;;;5064533;28;20048;-57
2022/10/06 11:53:55;;;;;;;13.25;2.95;;;23.60;70.10;;;;;;5068423;28;20117;-56
2022/10/06 11:56:34;;;;;;;9.10;3.72;;;23.70;70.70;;;;;;5035843;28;20067;-56
2022/10/06 11:59:12;;;;;;;7.15;2.83;;;24.60;70.30;;;;;;5050630;28;20037;-57
2022/10/06 12:01:57;;;;;;;7.22;1.70;;;24.60;67.80;;;;;;5068257;28;20351;-56
2022/10/06 12:04:25;;;;;;;8.07;1.80;;;24.90;69.00;;;;;;5049000;28;20040;-56
2022/10/06 12:06:54;;;;;;;9.70;1.88;;;24.80;67.80;;;;;;5049423;28;20151;-57
2022/10/06 12:09:25;;;;;;;8.30;2.70;;;24.50;67.30;;;;;;5064818;28;20055;-57
2022/10/06 12:11:55;;;;;;;6.05;2.17;;;25.10;66.50;;;;;;5071775;28;20044;-56
2022/10/06 12:14:24;;;;;;;4.78;1.33;;;25.20;66.10;;;;;;5052363;28;20044;-57
2022/10/06 12:17:21;;;;;;;5.43;1.80;;;25.70;65.20;;;;;;5063632;28;20048;-56
2022/10/06 12:19:56;;;;;;;7.10;1.58;;;25.00;62.80;;;;;;5050808;28;20058;-56
2022/10/06 12:22:30;;;;;;;6.18;1.00;;;24.20;61.10;;;;;;5048817;28;20052;-56
2022/10/06 12:25:14;;;;;;;6.57;1.50;;;23.70;59.70;;;;;;5048473;28;20078;-46
2022/10/06 12:28:04;;;;;;;6.68;1.30;;;24.20;60.70;;;;;;5075465;28;20708;-48
2022/10/06 12:31:22;;;;;;;6.15;1.23;;;23.30;59.90;;;;;;5048274;28;20189;-44
2022/10/06 12:33:49;;;;;;;6.15;1.38;;;24.00;61.00;;;;;;4997729;28;20060;-48
2022/10/06 12:36:27;;;;;;;7.40;0.93;;;24.30;59.80;;;;;;5046448;28;20473;-46
2022/10/06 12:39:05;;;;;;;5.93;1.50;;;24.10;58.20;;;;;;5037073;28;20052;-45
2022/10/06 12:42:00;;;;;;;8.48;1.67;;;24.30;59.70;;;;;;5073314;28;20393;-44
2022/10/06 12:44:39;;;;;;;7.25;1.08;;;23.90;60.00;;;;;;5071237;28;20043;-44
2022/10/06 12:47:33;;;;;;;7.60;1.05;;;24.00;59.60;;;;;;5073733;28;20083;-44
2022/10/06 12:50:07;;;;;;;5.57;2.08;;;24.30;60.10;;;;;;5069969;28;20138;-43
2022/10/06 12:52:57;;;;;;;5.38;1.10;;;23.60;59.20;;;;;;5073751;28;20055;-43
2022/10/06 12:55:42;;;;;;;6.45;1.20;;;23.50;58.40;;;;;;5076273;28;20048;-47
2022/10/06 12:58:31;;;;;;;6.10;1.00;;;23.50;59.50;;;;;;5049878;28;20047;-47
2022/10/06 13:01:07;;;;;;;6.82;1.50;;;23.70;59.60;;;;;;5091192;28;20048;-44
2022/10/06 13:03:37;;;;;;;5.63;1.77;;;23.90;60.20;;;;;;5070961;28;20589;-44
2022/10/06 13:06:06;;;;;;;8.05;1.40;;;23.70;59.70;;;;;;5074216;28;20113;-44
2022/10/06 13:08:37;;;;;;;7.85;1.92;;;23.70;59.10;;;;;;5050702;28;20056;-43
2022/10/06 13:11:10;;;;;;;6.07;1.10;;;23.80;58.90;;;;;;5072139;28;20055;-46
2022/10/06 13:13:44;;;;;;;6.47;1.55;;;24.00;58.60;;;;;;5071390;28;20063;-44
2022/10/06 13:16:12;;;;;;;6.25;1.35;;;23.60;59.50;;;;;;5054100;28;20117;-45
2022/10/06 13:18:38;;;;;;;6.57;1.35;;;24.10;59.40;;;;;;5071442;28;20044;-45
2022/10/06 13:21:12;;;;;;;6.88;1.33;;;23.50;59.40;;;;;;5047057;28;20205;-46